Terminal Aerodrome Forecast
Issued by NWS

Home | Current Version | Previous Version | Text Only | Print | Product List | Glossary On
Versions: 1 2 3 4 5 6 7 8 9 10 11 12 13
000
FTUS45 KRIW 280500
TAFCPR
TAF
KCPR 280525Z 2806/2906 VRB04KT P6SM VCFG SCT018 BKN080
      TEMPO 2806/2809 BKN018
     FM280900 26005KT P6SM VCFG SCT005 SCT100
     FM281600 33009KT P6SM SCT080=

USA.gov is the U.S. government's official web portal to all federal, state and local government web resources and services.